Time;durP1;ratioP1;P1;durP2;ratioP2;P2;SDS_P1;SDS_P2;PMS_P1;PMS_P2;Temp;Humidity;BMP_temperature;BMP_pressure;BME280_temperature;BME280_humidity;BME280_pressure;Samples;Min_cycle;Max_cycle;Signal;HPM_P1;HPM_P2
2023/02/13 00:01:08;;;;;;;;;;;;;;;0.86;62.56;94427.69;2060447;69;20173;-74
2023/02/13 00:03:33;;;;;;;;;;;;;;;0.85;62.71;94429.72;2060682;69;20157;-77
2023/02/13 00:05:59;;;;;;;;;;;;;;;0.92;62.61;94432.00;2059614;69;20125;-75
2023/02/13 00:08:24;;;;;;;;;;;;;;;0.84;63.41;94427.47;2059772;69;20042;-77
2023/02/13 00:10:50;;;;;;;;;;;;;;;0.84;62.48;94428.22;2060863;69;20115;-77
2023/02/13 00:13:15;;;;;;;;;;;;;;;0.74;61.85;94427.72;2060262;69;20046;-76
2023/02/13 00:15:41;;;;;;;;;;;;;;;0.86;62.13;94422.91;2058173;69;20430;-76
2023/02/13 00:18:06;;;;;;;;;;;;;;;0.52;64.24;94426.97;2057025;69;20517;-76
2023/02/13 00:20:32;;;;;;;;;;;;;;;0.70;63.09;94424.44;2058067;69;20487;-76
2023/02/13 00:23:00;;;;;;;;;;;;;;;0.58;63.02;94428.47;2057880;69;20053;-76
2023/02/13 00:25:26;;;;;;;;;;;;;;;0.56;63.19;94425.47;2057447;69;20042;-76
2023/02/13 00:27:52;;;;;;;;;;;;;;;0.53;63.59;94426.47;2056326;69;20043;-77
2023/02/13 00:30:19;;;;;;;;;;;;;;;0.60;62.22;94420.41;2057168;69;20074;-76
2023/02/13 00:32:44;;;;;;;;;;;;;;;0.56;62.70;94421.94;2057070;69;20059;-76
2023/02/13 00:35:09;;;;;;;;;;;;;;;0.39;63.77;94425.44;2057738;69;20053;-77
2023/02/13 00:37:36;;;;;;;;;;;;;;;0.59;62.18;94418.13;2057034;69;20066;-77
2023/02/13 00:40:01;;;;;;;;;;;;;;;0.48;63.21;94418.91;2057483;69;20475;-75
2023/02/13 00:42:27;;;;;;;;;;;;;;;0.49;63.29;94417.63;2060231;69;20073;-73
2023/02/13 00:44:53;;;;;;;;;;;;;;;0.54;62.99;94411.34;2055672;69;20049;-75
2023/02/13 00:47:18;;;;;;;;;;;;;;;0.60;64.49;94411.34;2057604;69;20164;-75
2023/02/13 00:49:44;;;;;;;;;;;;;;;0.65;63.25;94414.13;2057641;69;20057;-75
2023/02/13 00:52:10;;;;;;;;;;;;;;;0.50;64.76;94413.59;2057597;69;20390;-77
2023/02/13 00:54:35;;;;;;;;;;;;;;;0.44;64.37;94415.63;2057166;69;20403;-74
2023/02/13 00:57:01;;;;;;;;;;;;;;;0.36;63.86;94411.81;2055577;69;20094;-74
2023/02/13 00:59:26;;;;;;;;;;;;;;;0.43;64.42;94414.13;2056731;69;20065;-75
2023/02/13 01:01:52;;;;;;;;;;;;;;;0.40;63.44;94412.34;2057783;69;20149;-74
2023/02/13 01:04:17;;;;;;;;;;;;;;;0.30;63.41;94424.94;2057482;69;20503;-76
2023/02/13 01:06:43;;;;;;;;;;;;;;;0.27;62.84;94415.59;2058189;69;20474;-74
2023/02/13 01:09:08;;;;;;;;;;;;;;;0.23;63.88;94418.63;2057323;69;20066;-74
2023/02/13 01:11:34;;;;;;;;;;;;;;;0.18;63.89;94413.06;2056974;69;20092;-74
2023/02/13 01:14:00;;;;;;;;;;;;;;;0.28;63.73;94411.59;2055069;69;20050;-72
2023/02/13 01:16:25;;;;;;;;;;;;;;;0.15;63.90;94419.63;2056845;69;20451;-73
2023/02/13 01:18:51;;;;;;;;;;;;;;;0.14;65.21;94413.34;2057538;69;20085;-72
2023/02/13 01:21:18;;;;;;;;;;;;;;;0.13;64.85;94409.03;2057271;69;20421;-72
2023/02/13 01:23:44;;;;;;;;;;;;;;;0.14;63.33;94407.81;2057491;69;20061;-72
2023/02/13 01:26:12;;;;;;;;;;;;;;;0.09;64.86;94405.78;2057022;69;20162;-73
2023/02/13 01:28:38;;;;;;;;;;;;;;;0.10;65.70;94410.06;2057664;69;20046;-73
2023/02/13 01:31:03;;;;;;;;;;;;;;;0.20;65.08;94402.25;2057378;69;20141;-74
2023/02/13 01:33:29;;;;;;;;;;;;;;;0.18;63.75;94404.75;2057540;69;21119;-72
2023/02/13 01:35:54;;;;;;;;;;;;;;;0.24;64.53;94405.53;2055571;69;20150;-75
2023/02/13 01:38:20;;;;;;;;;;;;;;;0.01;64.60;94390.16;2057432;69;20057;-74
2023/02/13 01:40:46;;;;;;;;;;;;;;;0.11;64.12;94408.03;2057567;69;20042;-75
2023/02/13 01:43:12;;;;;;;;;;;;;;;-0.04;65.27;94406.25;2057419;69;20413;-75
2023/02/13 01:45:37;;;;;;;;;;;;;;;-0.07;65.09;94398.19;2057846;69;20066;-75
2023/02/13 01:48:12;;;;;;;;;;;;;;;0.05;65.02;94407.28;2057810;69;20120;-74
2023/02/13 01:50:43;;;;;;;;;;;;;;;0.05;64.87;94399.72;2057083;69;20042;-76
2023/02/13 01:53:12;;;;;;;;;;;;;;;-0.05;65.61;94392.91;2057749;69;20539;-75
2023/02/13 01:55:42;;;;;;;;;;;;;;;-0.11;65.54;94400.44;2056698;69;20144;-73
2023/02/13 01:58:10;;;;;;;;;;;;;;;-0.45;66.29;94403.13;2057174;69;20094;-76
2023/02/13 02:00:37;;;;;;;;;;;;;;;-0.39;65.61;94403.88;2056835;69;20189;-76
2023/02/13 02:03:09;;;;;;;;;;;;;;;-0.17;65.61;94402.44;2057132;69;20050;-75
2023/02/13 02:05:35;;;;;;;;;;;;;;;-0.29;64.91;94393.34;2056825;69;20141;-76
2023/02/13 02:08:02;;;;;;;;;;;;;;;-0.28;65.72;94395.59;2055854;69;20201;-78
2023/02/13 02:10:28;;;;;;;;;;;;;;;-0.17;66.40;94394.91;2056347;69;20206;-77
2023/02/13 02:12:54;;;;;;;;;;;;;;;-0.26;64.31;94400.66;2057380;69;20600;-76
2023/02/13 02:15:20;;;;;;;;;;;;;;;-0.22;64.75;94392.13;2056583;69;20176;-74
2023/02/13 02:17:45;;;;;;;;;;;;;;;-0.28;65.96;94392.84;2052885;69;20050;-75
2023/02/13 02:20:17;;;;;;;;;;;;;;;-0.24;64.68;94395.38;2056877;69;20438;-76
2023/02/13 02:23:01;;;;;;;;;;;;;;;-0.27;65.36;94401.94;2056843;69;20426;-75
2023/02/13 02:25:45;;;;;;;;;;;;;;;-0.41;65.20;94394.56;2056831;69;20069;-77
2023/02/13 02:28:29;;;;;;;;;;;;;;;-0.38;66.18;94394.31;2055865;69;20050;-75
2023/02/13 02:31:11;;;;;;;;;;;;;;;-0.44;65.79;94393.56;2057220;69;20070;-74
2023/02/13 02:33:48;;;;;;;;;;;;;;;-0.43;65.69;94397.09;2056814;69;20062;-76
2023/02/13 02:36:23;;;;;;;;;;;;;;;-0.34;65.50;94381.00;2057461;69;20092;-75
2023/02/13 02:38:56;;;;;;;;;;;;;;;-0.57;66.55;94385.72;2057773;69;20073;-75
2023/02/13 02:41:40;;;;;;;;;;;;;;;-0.66;67.12;94385.94;2057245;69;20140;-75
2023/02/13 02:44:42;;;;;;;;;;;;;;;-0.56;66.35;94390.00;2056832;69;20173;-74
2023/02/13 02:50:15;;;;;;;;;;;;;;;-0.44;67.16;94385.25;2044969;70;20047;-76
2023/02/13 02:52:49;;;;;;;;;;;;;;;-0.44;67.95;94385.25;2046931;70;20083;-76
2023/02/13 02:55:21;;;;;;;;;;;;;;;-0.43;66.85;94391.56;2042462;70;20519;-76
2023/02/13 03:06:16;;;;;;;;;;;;;;;-0.65;66.92;94387.44;2044795;70;20579;-75
2023/02/13 03:14:19;;;;;;;;;;;;;;;-0.73;66.42;94391.16;2046429;70;20079;-76
2023/02/13 03:23:04;;;;;;;;;;;;;;;-0.86;66.73;94386.09;2057244;69;20058;-74
2023/02/13 03:25:34;;;;;;;;;;;;;;;-0.73;65.74;94388.41;2049693;70;20083;-73
2023/02/13 03:31:09;;;;;;;;;;;;;;;-0.76;65.54;94398.47;2049900;70;20138;-75
2023/02/13 03:33:48;;;;;;;;;;;;;;;-0.84;65.71;94392.66;2046444;70;20078;-75
2023/02/13 03:39:11;;;;;;;;;;;;;;;-0.84;65.76;94389.13;2049618;70;20054;-76
2023/02/13 03:41:38;;;;;;;;;;;;;;;-0.86;66.10;94400.69;2049689;70;20503;-74
2023/02/13 03:44:17;;;;;;;;;;;;;;;-0.81;65.09;94394.44;2048789;70;20125;-75
2023/02/13 03:46:45;;;;;;;;;;;;;;;-0.84;65.88;94391.88;2049401;70;20083;-75
2023/02/13 03:52:06;;;;;;;;;;;;;;;-0.75;65.16;94394.44;2045513;70;20528;-75
2023/02/13 04:00:10;;;;;;;;;;;;;;;-0.80;66.87;94407.00;2056906;69;20189;-76
2023/02/13 04:02:42;;;;;;;;;;;;;;;-0.82;67.79;94409.50;2057125;69;20495;-75
2023/02/13 04:05:12;;;;;;;;;;;;;;;-0.68;66.79;94402.28;2057627;69;20062;-75
2023/02/13 04:07:37;;;;;;;;;;;;;;;-1.03;67.77;94406.13;2057935;69;20058;-74
2023/02/13 04:10:13;;;;;;;;;;;;;;;-0.85;68.91;94410.50;2057615;69;20047;-76
2023/02/13 04:12:48;;;;;;;;;;;;;;;-0.64;68.50;94410.31;2056971;69;20120;-76
2023/02/13 04:15:15;;;;;;;;;;;;;;;-0.77;66.49;94419.84;2057214;69;20089;-76
2023/02/13 04:17:47;;;;;;;;;;;;;;;-0.76;66.77;94417.81;2057901;69;20070;-75
2023/02/13 04:20:13;;;;;;;;;;;;;;;-0.79;66.53;94424.34;2056439;69;20141;-77
2023/02/13 04:22:46;;;;;;;;;;;;;;;-0.83;66.72;94418.28;2056738;69;20177;-76
2023/02/13 04:25:12;;;;;;;;;;;;;;;-0.70;66.12;94415.09;2058041;69;20145;-77
2023/02/13 04:27:38;;;;;;;;;;;;;;;-0.75;66.47;94413.06;2056716;69;20064;-76
2023/02/13 04:30:04;;;;;;;;;;;;;;;-0.85;66.04;94413.25;2058160;69;20500;-73
2023/02/13 04:32:29;;;;;;;;;;;;;;;-0.85;65.71;94412.50;2057171;69;20499;-75
2023/02/13 04:34:55;;;;;;;;;;;;;;;-0.85;65.64;94418.78;2058353;69;20050;-74
2023/02/13 04:37:20;;;;;;;;;;;;;;;-0.93;65.60;94417.72;2057942;69;20137;-76
2023/02/13 04:39:45;;;;;;;;;;;;;;;-0.84;65.56;94416.78;2058047;69;20052;-75
2023/02/13 04:42:11;;;;;;;;;;;;;;;-0.96;66.13;94418.75;2058414;69;20050;-76
2023/02/13 04:44:36;;;;;;;;;;;;;;;-0.86;66.19;94420.03;2058411;69;20497;-75
2023/02/13 04:47:02;;;;;;;;;;;;;;;-0.85;65.99;94424.31;2057458;69;20068;-77
2023/02/13 04:49:27;;;;;;;;;;;;;;;-0.81;66.05;94424.09;2057244;69;20052;-76
2023/02/13 04:51:52;;;;;;;;;;;;;;;-0.91;65.34;94428.31;2058173;69;20140;-75
2023/02/13 04:54:18;;;;;;;;;;;;;;;-0.85;65.05;94427.09;2057939;69;20176;-74
2023/02/13 04:56:43;;;;;;;;;;;;;;;-0.93;66.35;94433.56;2057507;69;20486;-75
2023/02/13 04:59:09;;;;;;;;;;;;;;;-0.89;66.12;94423.03;2056762;69;20105;-75
2023/02/13 05:01:34;;;;;;;;;;;;;;;-0.90;65.65;94432.59;2057423;69;20068;-76
2023/02/13 05:03:59;;;;;;;;;;;;;;;-0.71;66.01;94425.41;2057438;69;20114;-75
2023/02/13 05:06:25;;;;;;;;;;;;;;;-0.74;67.52;94437.44;2057314;69;20530;-74
2023/02/13 05:08:50;;;;;;;;;;;;;;;-0.64;66.09;94432.47;2057041;69;20621;-75
2023/02/13 05:11:16;;;;;;;;;;;;;;;-0.77;65.46;94438.44;2057547;69;20101;-76
2023/02/13 05:13:41;;;;;;;;;;;;;;;-0.75;65.10;94437.94;2057756;69;20566;-75
2023/02/13 05:16:07;;;;;;;;;;;;;;;-1.47;68.04;94441.75;2058049;69;20061;-75
2023/02/13 05:18:32;;;;;;;;;;;;;;;-0.96;67.25;94434.53;2056845;69;20541;-75
2023/02/13 05:23:41;;;;;;;;;;;;;;;-0.91;66.84;94436.63;2056971;69;20499;-73
2023/02/13 05:26:07;;;;;;;;;;;;;;;-0.88;66.91;94436.38;2056610;69;20042;-74
2023/02/13 05:31:16;;;;;;;;;;;;;;;-0.64;66.80;94438.00;2056372;69;20122;-75
2023/02/13 05:33:42;;;;;;;;;;;;;;;-0.62;65.79;94447.31;2057694;69;20088;-77
2023/02/13 05:36:07;;;;;;;;;;;;;;;-0.85;66.06;94445.69;2057033;69;20058;-76
2023/02/13 05:38:33;;;;;;;;;;;;;;;-0.94;66.44;94452.16;2057212;69;20054;-77
2023/02/13 05:40:59;;;;;;;;;;;;;;;-0.98;66.62;94453.66;2057262;69;20176;-76
2023/02/13 05:43:25;;;;;;;;;;;;;;;-0.95;66.71;94466.50;2057334;69;20578;-74
2023/02/13 05:45:51;;;;;;;;;;;;;;;-0.91;66.37;94458.72;2056562;69;20050;-75
2023/02/13 05:48:16;;;;;;;;;;;;;;;-0.81;66.48;94465.56;2057422;69;20084;-75
2023/02/13 05:50:42;;;;;;;;;;;;;;;-0.87;65.99;94467.53;2057627;69;20052;-76
2023/02/13 05:53:07;;;;;;;;;;;;;;;-0.81;65.99;94471.84;2057269;69;20469;-75
2023/02/13 05:55:32;;;;;;;;;;;;;;;-1.07;65.67;94457.38;2056514;69;20132;-75
2023/02/13 05:57:58;;;;;;;;;;;;;;;-1.07;67.19;94455.34;2058105;69;20050;-75
2023/02/13 06:00:23;;;;;;;;;;;;;;;-0.96;66.59;94465.75;2057364;69;20168;-75
2023/02/13 06:02:49;;;;;;;;;;;;;;;-1.13;65.87;94460.09;2058030;69;20172;-74
2023/02/13 06:05:14;;;;;;;;;;;;;;;-1.12;65.50;94466.38;2057053;69;20482;-75
2023/02/13 06:07:40;;;;;;;;;;;;;;;-1.03;66.09;94458.66;2056510;69;20056;-76
2023/02/13 06:10:06;;;;;;;;;;;;;;;-1.01;65.83;94458.16;2056765;69;20070;-74
2023/02/13 06:12:31;;;;;;;;;;;;;;;-1.17;66.67;94458.81;2056718;69;20481;-75
2023/02/13 06:14:57;;;;;;;;;;;;;;;-1.15;66.28;94459.81;2057511;69;20540;-73
2023/02/13 06:17:22;;;;;;;;;;;;;;;-1.07;66.68;94457.38;2056443;69;20105;-74
2023/02/13 06:19:48;;;;;;;;;;;;;;;-0.88;66.64;94461.25;2058121;69;20418;-74
2023/02/13 06:22:13;;;;;;;;;;;;;;;-1.06;66.69;94461.63;2057929;69;20053;-74
2023/02/13 06:24:39;;;;;;;;;;;;;;;-1.09;67.70;94463.41;2057389;69;20124;-73
2023/02/13 06:27:07;;;;;;;;;;;;;;;-0.96;67.40;94457.44;2057389;69;20441;-75
2023/02/13 06:29:32;;;;;;;;;;;;;;;-0.96;67.67;94462.19;2057258;69;20605;-74
2023/02/13 06:31:58;;;;;;;;;;;;;;;-0.85;66.95;94467.81;2056814;69;20191;-75
2023/02/13 06:34:24;;;;;;;;;;;;;;;-0.78;66.27;94459.81;2057702;69;20042;-76
2023/02/13 06:36:49;;;;;;;;;;;;;;;-0.67;67.57;94470.19;2057710;69;20071;-74
2023/02/13 06:39:15;;;;;;;;;;;;;;;-0.59;66.62;94470.47;2057672;69;20057;-74
2023/02/13 06:41:41;;;;;;;;;;;;;;;-0.60;66.35;94477.25;2057344;69;20049;-75
2023/02/13 06:44:06;;;;;;;;;;;;;;;-0.73;67.26;94477.69;2056287;69;20046;-76
2023/02/13 06:46:32;;;;;;;;;;;;;;;-0.77;67.20;94477.16;2056466;69;20206;-74
2023/02/13 06:48:57;;;;;;;;;;;;;;;-0.98;67.36;94481.31;2056694;69;20062;-75
2023/02/13 06:51:23;;;;;;;;;;;;;;;-0.85;66.71;94487.91;2057162;69;20575;-76
2023/02/13 06:53:48;;;;;;;;;;;;;;;-0.98;67.14;94484.81;2057232;69;20046;-74
2023/02/13 06:56:14;;;;;;;;;;;;;;;-0.74;66.79;94476.16;2058130;69;20046;-75
2023/02/13 06:58:39;;;;;;;;;;;;;;;-0.71;66.72;94485.50;2057211;69;20094;-75
2023/02/13 07:01:05;;;;;;;;;;;;;;;-0.66;67.51;94485.53;2056620;69;20046;-75
2023/02/13 07:03:30;;;;;;;;;;;;;;;-0.62;66.55;94483.28;2057923;69;20050;-72
2023/02/13 07:05:56;;;;;;;;;;;;;;;-0.65;66.36;94491.81;2057202;69;20046;-74
2023/02/13 07:08:24;;;;;;;;;;;;;;;-0.65;66.50;94489.03;2057918;69;20141;-77
2023/02/13 07:10:50;;;;;;;;;;;;;;;-0.50;66.59;94484.09;2056658;69;20065;-75
2023/02/13 07:13:16;;;;;;;;;;;;;;;-0.52;65.99;94484.59;2057621;69;20062;-72
2023/02/13 07:15:41;;;;;;;;;;;;;;;-0.45;65.95;94486.13;2058122;69;20146;-72
2023/02/13 07:18:07;;;;;;;;;;;;;;;-0.67;67.06;94491.56;2057053;69;20042;-74
2023/02/13 07:20:32;;;;;;;;;;;;;;;-0.58;66.86;94486.56;2057656;69;20152;-77
2023/02/13 07:22:59;;;;;;;;;;;;;;;-0.56;66.01;94488.84;2057090;69;20054;-75
2023/02/13 07:25:24;;;;;;;;;;;;;;;-0.61;66.48;94495.84;2058254;69;20046;-76
2023/02/13 07:27:50;;;;;;;;;;;;;;;-0.61;67.78;94504.16;2058145;69;20486;-76
2023/02/13 07:30:15;;;;;;;;;;;;;;;-0.49;67.03;94498.69;2058483;69;20085;-75
2023/02/13 07:32:41;;;;;;;;;;;;;;;-0.43;66.71;94499.47;2058411;69;20053;-76
2023/02/13 07:35:06;;;;;;;;;;;;;;;-0.43;66.06;94494.69;2058453;69;20042;-78
2023/02/13 07:37:32;;;;;;;;;;;;;;;-0.34;66.05;94494.47;2058296;69;20495;-76
2023/02/13 07:39:58;;;;;;;;;;;;;;;-0.24;66.52;94495.03;2058258;69;20049;-77
2023/02/13 07:42:23;;;;;;;;;;;;;;;-0.30;67.48;94495.00;2058270;69;20081;-79
2023/02/13 07:44:48;;;;;;;;;;;;;;;-0.32;66.44;94489.22;2058500;69;20486;-78
2023/02/13 07:47:14;;;;;;;;;;;;;;;-0.36;66.43;94491.47;2058831;69;20088;-76
2023/02/13 07:49:39;;;;;;;;;;;;;;;-0.62;67.38;94491.56;2058907;69;20135;-77
2023/02/13 07:52:05;;;;;;;;;;;;;;;-0.46;67.14;94495.69;2058676;69;20112;-78
2023/02/13 07:54:30;;;;;;;;;;;;;;;-0.33;66.50;94493.22;2058825;69;20054;-77
2023/02/13 07:56:56;;;;;;;;;;;;;;;-0.24;66.71;94492.25;2058631;69;20430;-75
2023/02/13 07:59:21;;;;;;;;;;;;;;;-0.13;65.49;94488.78;2058163;69;20145;-74
2023/02/13 08:01:47;;;;;;;;;;;;;;;-0.09;65.64;94486.53;2058669;69;20394;-73
2023/02/13 08:04:12;;;;;;;;;;;;;;;-0.36;66.72;94485.94;2058691;69;20045;-74
2023/02/13 08:06:41;;;;;;;;;;;;;;;-0.28;66.85;94489.72;2058681;69;20402;-77
2023/02/13 08:11:55;;;;;;;;;;;;;;;-0.08;66.64;94493.59;2058922;69;20141;-74
2023/02/13 08:14:24;;;;;;;;;;;;;;;-0.01;65.78;94490.31;2058549;69;20137;-73
2023/02/13 08:16:50;;;;;;;;;;;;;;;0.05;66.12;94496.66;2058590;69;20066;-75
2023/02/13 08:19:16;;;;;;;;;;;;;;;0.01;65.89;94493.38;2058627;69;20141;-73
2023/02/13 08:21:41;;;;;;;;;;;;;;;-0.06;66.21;94494.59;2058687;69;20145;-76
2023/02/13 08:24:07;;;;;;;;;;;;;;;0.03;66.44;94490.09;2058628;69;20058;-79
2023/02/13 08:26:33;;;;;;;;;;;;;;;0.11;65.69;94500.19;2058681;69;20129;-78
2023/02/13 08:28:59;;;;;;;;;;;;;;;0.05;66.49;94484.84;2058660;69;20149;-75
2023/02/13 08:31:24;;;;;;;;;;;;;;;0.28;65.55;94485.63;2058698;69;20413;-79
2023/02/13 08:33:49;;;;;;;;;;;;;;;0.27;65.18;94484.09;2058550;69;20069;-74
2023/02/13 08:36:15;;;;;;;;;;;;;;;0.38;65.84;94481.38;2058680;69;20082;-74
2023/02/13 08:38:41;;;;;;;;;;;;;;;0.62;68.26;94476.09;2058602;69;20046;-73
2023/02/13 08:41:06;;;;;;;;;;;;;;;1.29;66.24;94483.63;2058124;69;20494;-74
2023/02/13 08:43:32;;;;;;;;;;;;;;;1.74;66.35;94481.50;2058719;69;20056;-74
2023/02/13 08:45:58;;;;;;;;;;;;;;;2.16;65.23;94479.56;2059001;69;20544;-75
2023/02/13 08:48:24;;;;;;;;;;;;;;;2.74;65.41;94484.25;2058831;69;20506;-74
2023/02/13 08:50:49;;;;;;;;;;;;;;;3.20;65.71;94480.56;2058671;69;20066;-75
2023/02/13 08:53:15;;;;;;;;;;;;;;;3.49;63.48;94473.47;2058779;69;20169;-77
2023/02/13 08:55:40;;;;;;;;;;;;;;;3.89;62.22;94479.38;2058578;69;20057;-75
2023/02/13 08:58:06;;;;;;;;;;;;;;;4.27;61.28;94476.63;2058696;69;20054;-75
2023/02/13 09:00:31;;;;;;;;;;;;;;;4.66;59.31;94472.53;2058583;69;20128;-76
2023/02/13 09:03:01;;;;;;;;;;;;;;;5.06;59.25;94470.66;2058749;69;20061;-80
2023/02/13 09:05:27;;;;;;;;;;;;;;;5.27;57.45;94477.19;2058569;69;20155;-79
2023/02/13 09:07:52;;;;;;;;;;;;;;;5.65;57.19;94476.25;2058664;69;20072;-75
2023/02/13 09:10:18;;;;;;;;;;;;;;;6.05;56.67;94474.25;2058581;69;20141;-76
2023/02/13 09:12:43;;;;;;;;;;;;;;;6.43;54.87;94476.78;2058421;69;20073;-73
2023/02/13 09:15:08;;;;;;;;;;;;;;;6.67;53.47;94476.50;2058523;69;20473;-78
2023/02/13 09:17:34;;;;;;;;;;;;;;;6.90;53.29;94476.00;2058535;69;20165;-78
2023/02/13 09:19:59;;;;;;;;;;;;;;;7.15;51.73;94480.00;2058639;69;20072;-77
2023/02/13 09:22:25;;;;;;;;;;;;;;;7.39;49.85;94479.66;2058596;69;20479;-80
2023/02/13 09:24:50;;;;;;;;;;;;;;;7.74;50.11;94471.13;2058644;69;20426;-80
2023/02/13 09:27:16;;;;;;;;;;;;;;;8.38;50.34;94476.00;2058570;69;20049;-79
2023/02/13 09:29:41;;;;;;;;;;;;;;;7.92;50.28;94484.16;2058486;69;20145;-78
2023/02/13 09:32:06;;;;;;;;;;;;;;;8.33;49.38;94474.09;2058540;69;20430;-79
2023/02/13 09:34:32;;;;;;;;;;;;;;;7.49;49.47;94465.91;2058571;69;20046;-81
2023/02/13 09:36:57;;;;;;;;;;;;;;;8.50;48.55;94473.66;2058566;69;20395;-80
2023/02/13 09:39:23;;;;;;;;;;;;;;;8.87;46.72;94472.28;2058500;69;20053;-80
2023/02/13 09:41:50;;;;;;;;;;;;;;;8.75;45.22;94463.47;2058664;69;20038;-81
2023/02/13 09:44:33;;;;;;;;;;;;;;;9.09;44.90;94474.41;2058513;69;20050;-77
2023/02/13 09:47:20;;;;;;;;;;;;;;;9.92;43.46;94463.75;2058848;69;20092;-83
2023/02/13 09:49:49;;;;;;;;;;;;;;;10.37;41.41;94468.56;2058668;69;20053;-80
2023/02/13 09:52:15;;;;;;;;;;;;;;;10.32;42.70;94465.94;2058567;69;20081;-78
2023/02/13 09:54:40;;;;;;;;;;;;;;;11.33;41.41;94474.13;2058433;69;20128;-73
2023/02/13 09:57:12;;;;;;;;;;;;;;;11.82;39.85;94466.22;2058390;69;20042;-82
2023/02/13 09:59:56;;;;;;;;;;;;;;;11.33;37.84;94462.09;2058413;69;20117;-77
2023/02/13 10:02:30;;;;;;;;;;;;;;;11.23;38.53;94464.03;2058389;69;20050;-74
2023/02/13 10:05:02;;;;;;;;;;;;;;;11.65;37.86;94462.03;2058587;69;20046;-73
2023/02/13 10:07:48;;;;;;;;;;;;;;;11.99;36.41;94463.47;2060357;69;20158;-77
2023/02/13 10:10:21;;;;;;;;;;;;;;;12.66;35.61;94465.41;2061662;69;20053;-74
2023/02/13 10:12:55;;;;;;;;;;;;;;;13.02;35.49;94469.69;2061837;69;20046;-75
2023/02/13 10:15:27;;;;;;;;;;;;;;;13.95;34.43;94467.78;2061681;69;20100;-75
2023/02/13 10:18:13;;;;;;;;;;;;;;;13.25;33.61;94458.09;2061796;69;20480;-73
2023/02/13 10:20:42;;;;;;;;;;;;;;;14.12;33.32;94459.19;2060335;69;20091;-74
2023/02/13 10:23:25;;;;;;;;;;;;;;;13.77;34.73;94455.78;2061648;69;20544;-76
2023/02/13 10:25:55;;;;;;;;;;;;;;;15.84;32.79;94460.97;2061658;69;20512;-80
2023/02/13 10:28:27;;;;;;;;;;;;;;;15.78;31.97;94452.03;2061759;69;20462;-77
2023/02/13 10:30:55;;;;;;;;;;;;;;;15.55;31.58;94451.81;2061071;69;20424;-79
2023/02/13 10:33:39;;;;;;;;;;;;;;;15.12;32.35;94446.69;2061665;69;20058;-81
2023/02/13 10:36:11;;;;;;;;;;;;;;;15.47;32.37;94444.19;2061723;69;20046;-80
2023/02/13 10:38:44;;;;;;;;;;;;;;;16.71;30.14;94454.00;2061857;69;20046;-80
2023/02/13 10:41:35;;;;;;;;;;;;;;;17.14;29.13;94445.44;2061764;69;20057;-81
2023/02/13 10:44:09;;;;;;;;;;;;;;;16.68;30.09;94441.78;2061754;69;20078;-78
2023/02/13 10:46:50;;;;;;;;;;;;;;;17.00;29.77;94439.59;2061728;69;20054;-78
2023/02/13 10:49:32;;;;;;;;;;;;;;;18.32;28.73;94429.19;2061834;69;20073;-79
2023/02/13 10:52:13;;;;;;;;;;;;;;;18.21;27.97;94425.00;2061752;69;20066;-78
2023/02/13 10:54:38;;;;;;;;;;;;;;;16.82;28.45;94424.19;2061994;69;20053;-79
2023/02/13 10:57:16;;;;;;;;;;;;;;;18.39;28.09;94419.66;2061645;69;20116;-76
2023/02/13 11:00:20;;;;;;;;;;;;;;;19.05;27.38;94410.63;2061697;69;20057;-76
2023/02/13 11:02:46;;;;;;;;;;;;;;;21.28;24.22;94411.56;2054229;69;20050;-75
2023/02/13 11:05:21;;;;;;;;;;;;;;;21.59;23.55;94413.03;2054240;69;20198;-76
2023/02/13 11:07:46;;;;;;;;;;;;;;;22.30;23.69;94407.69;2054358;70;20078;-77
2023/02/13 11:10:14;;;;;;;;;;;;;;;21.71;21.70;94411.47;2054548;69;20053;-80
2023/02/13 11:12:39;;;;;;;;;;;;;;;22.78;22.43;94402.56;2055222;69;20166;-81
2023/02/13 11:15:06;;;;;;;;;;;;;;;23.27;21.83;94399.59;2054413;69;20083;-79
2023/02/13 11:17:37;;;;;;;;;;;;;;;25.11;19.90;94394.88;2054484;69;20180;-81
2023/02/13 11:20:05;;;;;;;;;;;;;;;26.29;18.94;94403.56;2054299;69;20051;-82
2023/02/13 11:22:33;;;;;;;;;;;;;;;24.29;20.01;94386.25;2054304;69;20054;-82
2023/02/13 11:25:05;;;;;;;;;;;;;;;24.30;19.48;94402.13;2054321;70;20082;-82
2023/02/13 11:27:34;;;;;;;;;;;;;;;25.12;19.21;94386.97;2054268;69;20081;-82
2023/02/13 11:30:03;;;;;;;;;;;;;;;27.43;18.44;94395.06;2054092;70;20073;-81
2023/02/13 11:32:30;;;;;;;;;;;;;;;27.01;19.20;94395.44;2054881;69;20069;-82
2023/02/13 11:34:56;;;;;;;;;;;;;;;26.29;17.91;94394.91;2061930;69;20079;-82
2023/02/13 11:37:21;;;;;;;;;;;;;;;28.43;17.93;94393.72;2061701;69;20052;-83
2023/02/13 11:39:49;;;;;;;;;;;;;;;25.69;17.58;94388.78;2061799;69;20145;-83
2023/02/13 11:42:15;;;;;;;;;;;;;;;27.17;18.02;94392.28;2061125;69;20140;-76
2023/02/13 11:44:43;;;;;;;;;;;;;;;26.13;17.96;94388.69;2061584;69;20050;-78
2023/02/13 11:47:09;;;;;;;;;;;;;;;27.60;17.14;94387.53;2064668;69;20488;-75
2023/02/13 11:49:38;;;;;;;;;;;;;;;28.05;16.35;94383.50;2062171;69;20478;-78
2023/02/13 11:52:05;;;;;;;;;;;;;;;29.89;15.81;94378.19;2068010;69;20008;-80
2023/02/13 11:54:31;;;;;;;;;;;;;;;31.79;14.44;94381.00;2065581;69;20119;-81
2023/02/13 11:56:57;;;;;;;;;;;;;;;32.68;13.88;94379.34;2062652;69;20050;-78
2023/02/13 11:59:24;;;;;;;;;;;;;;;33.22;14.20;94378.78;2061990;69;20054;-80
2023/02/13 12:02:11;;;;;;;;;;;;;;;33.49;13.24;94378.81;2061989;69;20065;-81
2023/02/13 12:04:36;;;;;;;;;;;;;;;33.36;13.87;94375.16;2061861;69;20081;-82
2023/02/13 12:07:03;;;;;;;;;;;;;;;33.93;13.45;94365.66;2061780;69;20096;-81
2023/02/13 12:09:29;;;;;;;;;;;;;;;32.59;12.71;94372.75;2061562;69;20042;-80
2023/02/13 12:12:01;;;;;;;;;;;;;;;33.32;13.11;94366.38;2061643;69;20119;-81
2023/02/13 12:14:32;;;;;;;;;;;;;;;33.74;12.56;94362.75;2061436;69;20073;-79
2023/02/13 12:17:06;;;;;;;;;;;;;;;33.93;12.60;94357.63;2061453;69;20057;-79
2023/02/13 12:19:40;;;;;;;;;;;;;;;32.85;11.98;94364.09;2061423;69;20137;-82
2023/02/13 12:22:11;;;;;;;;;;;;;;;32.29;12.62;94355.84;2061388;69;20137;-77
2023/02/13 12:24:43;;;;;;;;;;;;;;;32.45;12.08;94350.13;2061395;69;20518;-77
2023/02/13 12:27:18;;;;;;;;;;;;;;;31.88;11.81;94349.78;2061568;69;20470;-79
2023/02/13 12:30:03;;;;;;;;;;;;;;;33.03;12.67;94340.06;2061358;69;20050;-80
2023/02/13 12:32:29;;;;;;;;;;;;;;;33.29;14.18;94347.41;2061899;69;20123;-78
2023/02/13 12:35:00;;;;;;;;;;;;;;;32.06;13.37;94349.16;2061939;69;20066;-77
2023/02/13 12:37:28;;;;;;;;;;;;;;;33.05;13.19;94339.38;2061825;69;20116;-77
2023/02/13 12:39:54;;;;;;;;;;;;;;;32.56;12.38;94337.03;2061833;69;20049;-78
2023/02/13 12:42:19;;;;;;;;;;;;;;;32.71;12.67;94328.31;2061880;69;20096;-78
2023/02/13 12:44:49;;;;;;;;;;;;;;;32.78;12.93;94324.69;2061234;69;20042;-80
2023/02/13 12:47:27;;;;;;;;;;;;;;;32.65;12.83;94326.13;2061905;69;20042;-78
2023/02/13 12:50:12;;;;;;;;;;;;;;;32.55;12.98;94329.00;2061863;69;20054;-77
2023/02/13 12:52:40;;;;;;;;;;;;;;;33.14;13.97;94317.50;2062014;69;20482;-77
2023/02/13 12:55:24;;;;;;;;;;;;;;;35.15;12.61;94324.28;2062064;69;20053;-77
2023/02/13 12:57:53;;;;;;;;;;;;;;;29.80;13.47;94316.38;2061411;69;20124;-77
2023/02/13 13:00:36;;;;;;;;;;;;;;;25.66;15.95;94306.47;2061812;69;20054;-81
2023/02/13 13:03:20;;;;;;;;;;;;;;;24.16;17.52;94303.03;2061895;69;20562;-77
2023/02/13 13:06:04;;;;;;;;;;;;;;;23.35;18.97;94298.59;2061947;69;20068;-78
2023/02/13 13:09:04;;;;;;;;;;;;;;;22.09;19.34;94291.31;2061882;69;20124;-79
2023/02/13 13:11:46;;;;;;;;;;;;;;;20.47;20.48;94291.72;2057839;69;20084;-80
2023/02/13 13:14:30;;;;;;;;;;;;;;;19.17;22.03;94284.97;2061191;69;20058;-79
2023/02/13 13:16:58;;;;;;;;;;;;;;;18.98;22.44;94280.41;2061314;69;20069;-84
2023/02/13 13:19:33;;;;;;;;;;;;;;;19.10;22.16;94272.47;2061800;69;20054;-80
2023/02/13 13:22:09;;;;;;;;;;;;;;;18.93;21.93;94273.72;2061893;69;20070;-79
2023/02/13 13:24:53;;;;;;;;;;;;;;;19.76;22.03;94268.13;2061877;69;20053;-79
2023/02/13 13:27:35;;;;;;;;;;;;;;;22.89;19.85;94278.16;2061835;69;20148;-78
2023/02/13 13:30:03;;;;;;;;;;;;;;;26.54;18.49;94286.63;2061730;69;20095;-79
2023/02/13 13:32:30;;;;;;;;;;;;;;;25.75;17.87;94277.22;2061740;69;20092;-79
2023/02/13 13:34:56;;;;;;;;;;;;;;;26.60;17.76;94283.88;2061630;69;20050;-79
2023/02/13 13:37:22;;;;;;;;;;;;;;;25.16;18.19;94277.59;2061877;69;20045;-79
2023/02/13 13:39:57;;;;;;;;;;;;;;;22.20;20.13;94276.03;2061680;69;20459;-78
2023/02/13 13:42:30;;;;;;;;;;;;;;;19.57;22.55;94269.28;2061931;69;20141;-79
2023/02/13 13:45:17;;;;;;;;;;;;;;;18.41;23.66;94266.53;2061672;69;20045;-80